Главная страница
METAR-TAF:

METAR-TAF

Аэропорты :

Джинна

Карачи, Пакистан

широта: 24-54N, долгота: 067-08E, высота над уровнем моря: 21 м

Текущие метеонаблюдения

Эта сводка был подготовлена 1 час и 16 минут назад, в 21:55 UTC
Ветер 8 Узел от западно-северо-западный
Температура 26°C
Влажность 79%
Давление 1007 hPa
Видимость: 7000 м

METAR: OPKC 212155Z 29008KT 7000 NSC 26/22 Q1007 NOSIG

Время: 04:11 (23:11 UTC)

Прогноз

Эта сводка был подготовлена 7 часа и 41 минут назад, в 15:30 UTC
Прогноз действительный с 21-го 18 UTC до 22-го 24 UTC
Ветер 8 Узел от западный
Видимость: 6000 м
Отдельные облака на высоте 2500 фута
С UTC
Ветер 8 Узел от западный-юго-западный с порывами до 18 Узел
Видимость: 7000 м
С UTC
Ветер 8 Узел от западный
Видимость: 6000 м
небольшая облачность на высоте 3000 фута
Отдельные облака на высоте 10000 фута

TAF: OPKC 211530Z 2118/2224 28008KT 6000 SCT025 NSC FM 220600Z 25008G18KT 7000 NSC FM 221500Z 28008KT 6000 FEW030 SCT100

Метеонаблюдения и прогнозы для более 4000 аэропортов (сводки METAR и TAF).

Имеющиеся станции представлены на карте желтыми и красными точками.

Чтобы увидеть название станции, наведите на нее мышь.

Затем щелкните, чтобы увидеть метеонаблюдения и метеопрогнозы.

Управление картой: чтобы увеличить масштаб, щелкните зеленые кнопки с черным крестиком; чтобы уменьшить масштаб, щелкните зеленую кнопку с тире; для просмотра соседних карт щелкайте зеленые стрелки.


METAR-TAF: